createdAt,value
2023-02-11T00:00:49.215Z,61.39
2023-02-11T00:05:37.166Z,61.45
2023-02-11T00:07:23.060Z,61.27
2023-02-11T00:09:01.948Z,61.29
2023-02-11T00:14:04.278Z,61.28
2023-02-11T00:15:37.571Z,61.27
2023-02-11T00:17:23.786Z,61.26
2023-02-11T00:19:37.057Z,61.33
2023-02-11T00:21:23.136Z,61.15
2023-02-11T00:22:59.949Z,61.20
2023-02-11T00:24:36.757Z,61.37
2023-02-11T00:26:07.242Z,61.29
2023-02-11T00:27:34.362Z,61.06
2023-02-11T00:28:58.619Z,61.31
2023-02-11T00:30:32.477Z,61.27
2023-02-11T00:32:09.086Z,61.19
2023-02-11T00:33:32.560Z,61.19
2023-02-11T00:34:57.992Z,61.15
2023-02-11T00:36:27.384Z,61.05
2023-02-11T00:37:56.779Z,61.23
2023-02-11T00:39:21.662Z,61.13
2023-02-11T00:40:44.284Z,60.99
2023-02-11T00:42:19.645Z,61.21
2023-02-11T00:43:51.090Z,61.12
2023-02-11T00:45:31.514Z,60.92
2023-02-11T00:47:09.504Z,61.13
2023-02-11T00:48:34.736Z,61.20
2023-02-11T00:50:05.430Z,61.23
2023-02-11T00:51:30.812Z,61.10
2023-02-11T00:52:53.256Z,61.01
2023-02-11T00:54:20.004Z,60.98
2023-02-11T00:55:42.833Z,60.94
2023-02-11T00:57:21.804Z,61.07
2023-02-11T00:58:47.465Z,61.06
2023-02-11T01:00:13.254Z,60.92
2023-02-11T01:01:36.098Z,60.94
2023-02-11T01:02:59.256Z,61.11
2023-02-11T01:04:21.905Z,61.23
2023-02-11T01:05:46.396Z,61.10
2023-02-11T01:07:08.878Z,61.15
2023-02-11T01:08:33.372Z,61.28
2023-02-11T01:09:57.170Z,61.09
2023-02-11T01:11:21.634Z,60.96
2023-02-11T01:12:44.542Z,61.07
2023-02-11T01:14:06.185Z,61.19
2023-02-11T01:15:32.235Z,61.31
2023-02-11T01:16:57.304Z,61.23
2023-02-11T01:18:22.800Z,61.08
2023-02-11T01:19:45.137Z,61.25
2023-02-11T01:21:10.197Z,61.35
2023-02-11T01:22:39.653Z,61.16
2023-02-11T01:24:02.405Z,61.49
2023-02-11T01:25:23.881Z,61.34
2023-02-11T01:26:46.424Z,61.48
2023-02-11T01:28:20.292Z,61.52
2023-02-11T01:29:43.066Z,61.51
2023-02-11T01:31:07.003Z,61.32
2023-02-11T01:32:31.943Z,61.39
2023-02-11T01:33:55.892Z,61.39
2023-02-11T01:35:20.551Z,61.31
2023-02-11T01:36:47.313Z,61.79
2023-02-11T01:38:17.716Z,61.51
2023-02-11T01:39:42.702Z,61.76
2023-02-11T01:41:07.723Z,61.53
2023-02-11T01:42:34.466Z,61.94
2023-02-11T01:43:57.178Z,61.87
2023-02-11T01:45:50.068Z,61.87
2023-02-11T01:47:14.642Z,61.79
2023-02-11T01:48:42.582Z,61.94
2023-02-11T01:50:06.969Z,62.02
2023-02-11T01:51:35.029Z,62.19
2023-02-11T01:53:19.260Z,62.06
2023-02-11T01:55:03.586Z,61.92
2023-02-11T01:56:46.393Z,62.04
2023-02-11T01:58:09.027Z,62.11
2023-02-11T01:59:34.855Z,61.92
2023-02-11T02:01:03.262Z,62.21
2023-02-11T02:02:31.453Z,62.02
2023-02-11T02:04:00.703Z,61.98
2023-02-11T02:05:35.615Z,62.03
2023-02-11T02:07:03.839Z,62.20
2023-02-11T02:08:32.327Z,62.11
2023-02-11T02:10:06.049Z,62.03
2023-02-11T02:11:27.769Z,61.95
2023-02-11T02:12:50.100Z,61.76
2023-02-11T02:14:13.796Z,61.71
2023-02-11T02:15:38.040Z,61.69
2023-02-11T02:16:59.436Z,61.86
2023-02-11T02:18:44.353Z,61.71
2023-02-11T02:20:39.505Z,61.99
2023-02-11T02:22:44.008Z,61.69
2023-02-11T02:24:44.435Z,61.68
2023-02-11T02:26:42.690Z,61.69
2023-02-11T02:28:22.654Z,61.36
2023-02-11T02:30:05.107Z,61.56
2023-02-11T02:31:44.730Z,61.29
2023-02-11T02:33:23.664Z,61.35
2023-02-11T02:34:51.717Z,61.13
2023-02-11T02:36:19.934Z,61.22
2023-02-11T02:37:47.181Z,61.09
2023-02-11T02:39:13.425Z,61.17
2023-02-11T02:40:45.059Z,61.01
2023-02-11T02:42:14.766Z,60.80
2023-02-11T02:43:41.502Z,60.88
2023-02-11T02:45:04.290Z,60.68
2023-02-11T02:46:28.635Z,60.62
2023-02-11T02:47:51.261Z,60.57
2023-02-11T02:49:17.163Z,60.12
2023-02-11T02:50:44.873Z,60.42
2023-02-11T02:52:23.055Z,60.11
2023-02-11T02:53:59.314Z,60.19
2023-02-11T02:55:38.414Z,60.15
2023-02-11T02:57:11.731Z,59.94
2023-02-11T02:59:07.834Z,59.82
2023-02-11T03:00:44.294Z,59.95
2023-02-11T03:02:15.899Z,59.73
2023-02-11T03:03:55.581Z,59.59
2023-02-11T03:05:34.745Z,59.57
2023-02-11T03:07:06.216Z,59.48
2023-02-11T03:08:34.724Z,59.61
2023-02-11T03:10:05.617Z,59.70
2023-02-11T03:11:33.709Z,59.37
2023-02-11T03:12:58.530Z,59.43
2023-02-11T03:14:23.668Z,59.30
2023-02-11T03:15:46.918Z,59.22
2023-02-11T03:17:13.002Z,59.23
2023-02-11T03:18:37.613Z,59.22
2023-02-11T03:20:01.700Z,59.16
2023-02-11T03:21:28.021Z,59.12
2023-02-11T03:22:55.205Z,59.04
2023-02-11T03:24:23.165Z,59.20
2023-02-11T03:25:50.828Z,58.95
2023-02-11T03:27:22.075Z,59.23
2023-02-11T03:28:49.970Z,59.05
2023-02-11T03:30:17.886Z,59.17
2023-02-11T03:31:47.101Z,59.05
2023-02-11T03:33:16.011Z,58.77
2023-02-11T03:34:45.805Z,59.09
2023-02-11T03:36:12.209Z,58.88
2023-02-11T03:37:40.994Z,58.82
2023-02-11T03:39:05.796Z,58.87
2023-02-11T03:40:32.186Z,59.16
2023-02-11T03:42:00.671Z,59.08
2023-02-11T03:43:27.706Z,59.17
2023-02-11T03:44:57.061Z,58.95
2023-02-11T03:46:25.376Z,59.11
2023-02-11T03:47:53.367Z,58.88
2023-02-11T03:49:18.324Z,58.98
2023-02-11T03:50:42.759Z,58.90
2023-02-11T03:52:06.421Z,58.95
2023-02-11T03:53:32.754Z,58.96
2023-02-11T03:54:59.224Z,58.90
2023-02-11T03:56:28.307Z,58.99
2023-02-11T03:57:52.887Z,58.84
2023-02-11T03:59:16.344Z,58.78
2023-02-11T04:00:43.521Z,58.94
2023-02-11T04:02:06.103Z,58.78
2023-02-11T04:03:27.643Z,58.78
2023-02-11T04:04:53.211Z,58.80
2023-02-11T04:06:15.659Z,58.82
2023-02-11T04:07:37.355Z,58.39
2023-02-11T04:09:01.745Z,58.30
2023-02-11T04:10:24.412Z,58.27
2023-02-11T04:11:45.537Z,58.35
2023-02-11T04:13:10.445Z,58.33
2023-02-11T04:14:31.711Z,58.25
2023-02-11T04:15:54.703Z,58.19
2023-02-11T04:17:16.300Z,57.85
2023-02-11T04:18:38.836Z,58.00
2023-02-11T04:20:00.104Z,58.20
2023-02-11T04:21:22.829Z,57.88
2023-02-11T04:22:44.039Z,58.03
2023-02-11T04:24:08.179Z,57.96
2023-02-11T04:25:29.598Z,58.11
2023-02-11T04:26:54.094Z,58.09
2023-02-11T04:28:15.614Z,58.07
2023-02-11T04:29:38.241Z,58.03
2023-02-11T04:31:06.706Z,58.06
2023-02-11T04:32:29.457Z,58.08
2023-02-11T04:33:53.411Z,57.96
2023-02-11T04:35:15.664Z,58.03
2023-02-11T04:36:38.220Z,58.08
2023-02-11T04:38:02.706Z,57.92
2023-02-11T04:39:27.402Z,58.04
2023-02-11T04:40:49.934Z,57.97
2023-02-11T04:42:11.612Z,57.96
2023-02-11T04:43:39.471Z,57.82
2023-02-11T04:45:01.003Z,58.01
2023-02-11T04:46:23.452Z,57.92
2023-02-11T04:47:47.314Z,57.63
2023-02-11T04:49:09.972Z,57.80
2023-02-11T04:50:32.852Z,57.88
2023-02-11T04:51:58.045Z,58.10
2023-02-11T04:53:20.437Z,57.84
2023-02-11T04:54:44.190Z,58.12
2023-02-11T04:56:07.252Z,58.19
2023-02-11T04:57:55.443Z,58.02
2023-02-11T04:59:18.154Z,58.13
2023-02-11T05:00:43.245Z,57.93
2023-02-11T05:02:20.658Z,58.11
2023-02-11T05:04:33.546Z,57.76
2023-02-11T05:05:56.462Z,57.76
2023-02-11T05:07:28.203Z,57.68
2023-02-11T05:08:50.868Z,57.71
2023-02-11T05:10:15.873Z,57.92
2023-02-11T05:11:39.531Z,57.83
2023-02-11T05:13:08.601Z,57.71
2023-02-11T05:14:31.876Z,57.90
2023-02-11T05:15:53.659Z,57.72
2023-02-11T05:17:16.259Z,57.84
2023-02-11T05:18:38.261Z,57.87
2023-02-11T05:20:03.716Z,57.73
2023-02-11T05:21:25.199Z,57.74
2023-02-11T05:22:48.208Z,57.57
2023-02-11T05:24:11.067Z,57.56
2023-02-11T05:25:35.338Z,57.51
2023-02-11T05:26:58.632Z,57.57
2023-02-11T05:28:21.018Z,57.60
2023-02-11T05:29:42.611Z,57.67
2023-02-11T05:31:05.468Z,57.74
2023-02-11T05:32:28.104Z,57.60
2023-02-11T05:33:50.859Z,57.58
2023-02-11T05:35:12.185Z,57.50
2023-02-11T05:36:34.451Z,57.44
2023-02-11T05:37:58.352Z,57.62
2023-02-11T05:39:20.939Z,57.75
2023-02-11T05:40:44.860Z,57.38
2023-02-11T05:42:07.499Z,57.36
2023-02-11T05:43:32.019Z,57.33
2023-02-11T05:44:54.405Z,57.01
2023-02-11T05:46:18.682Z,57.08
2023-02-11T05:47:41.154Z,57.06
2023-02-11T05:49:04.301Z,57.28
2023-02-11T05:50:26.482Z,57.36
2023-02-11T05:51:48.167Z,57.42
2023-02-11T05:53:10.840Z,57.39
2023-02-11T05:54:33.398Z,57.34
2023-02-11T05:55:56.533Z,57.27
2023-02-11T05:57:20.075Z,57.38
2023-02-11T05:58:43.875Z,57.09
2023-02-11T06:00:08.125Z,57.11
2023-02-11T06:01:34.760Z,57.12
2023-02-11T06:02:57.281Z,56.95
2023-02-11T06:04:19.869Z,56.93
2023-02-11T06:05:42.812Z,57.02
2023-02-11T06:07:07.528Z,56.85
2023-02-11T06:08:31.428Z,57.00
2023-02-11T06:09:54.200Z,56.91
2023-02-11T06:11:20.593Z,56.97
2023-02-11T06:12:45.205Z,56.95
2023-02-11T06:14:10.114Z,56.94
2023-02-11T06:15:31.928Z,56.86
2023-02-11T06:16:55.612Z,56.79
2023-02-11T06:18:27.248Z,56.86
2023-02-11T06:19:51.154Z,56.91
2023-02-11T06:21:13.872Z,56.77
2023-02-11T06:22:38.306Z,57.02
2023-02-11T06:24:05.701Z,56.83
2023-02-11T06:25:28.325Z,56.66
2023-02-11T06:26:52.734Z,56.79
2023-02-11T06:28:15.516Z,56.87
2023-02-11T06:29:37.157Z,56.82
2023-02-11T06:31:11.004Z,56.70
2023-02-11T06:32:44.908Z,56.59
2023-02-11T06:34:09.519Z,56.96
2023-02-11T06:35:31.626Z,56.72
2023-02-11T06:36:55.934Z,56.88
2023-02-11T06:38:19.137Z,56.97
2023-02-11T06:39:41.480Z,56.90
2023-02-11T06:41:06.793Z,56.85
2023-02-11T06:42:31.573Z,56.91
2023-02-11T06:43:55.031Z,56.82
2023-02-11T06:45:17.847Z,56.72
2023-02-11T06:46:40.422Z,56.92
2023-02-11T06:48:02.772Z,56.84
2023-02-11T06:49:25.371Z,56.75
2023-02-11T06:50:47.829Z,56.86
2023-02-11T06:52:12.446Z,56.78
2023-02-11T06:53:39.508Z,56.78
2023-02-11T06:55:02.861Z,56.66
2023-02-11T06:56:29.700Z,56.68
2023-02-11T06:57:54.611Z,56.88
2023-02-11T06:59:28.609Z,56.74
2023-02-11T07:00:52.600Z,56.48
2023-02-11T07:02:15.590Z,56.30
2023-02-11T07:03:44.357Z,56.48
2023-02-11T07:05:19.445Z,56.39
2023-02-11T07:06:52.198Z,56.27
2023-02-11T07:08:19.692Z,56.32
2023-02-11T07:09:53.864Z,56.20
2023-02-11T07:11:27.738Z,56.18
2023-02-11T07:12:49.600Z,56.02
2023-02-11T07:14:18.124Z,55.95
2023-02-11T07:15:53.122Z,55.81
2023-02-11T07:17:16.162Z,55.69
2023-02-11T07:20:51.026Z,55.57
2023-02-11T07:22:18.345Z,55.56
2023-02-11T07:23:50.212Z,55.37
2023-02-11T07:25:16.011Z,55.39
2023-02-11T07:26:42.015Z,55.37
2023-02-11T07:28:07.087Z,55.07
2023-02-11T07:29:54.531Z,55.22
2023-02-11T07:31:30.340Z,54.94
2023-02-11T07:33:06.047Z,55.02
2023-02-11T07:34:35.184Z,54.91
2023-02-11T07:36:24.905Z,54.81
2023-02-11T07:38:03.039Z,54.70
2023-02-11T07:39:36.409Z,54.66
2023-02-11T07:41:03.024Z,54.73
2023-02-11T07:44:37.216Z,54.66
2023-02-11T07:46:18.500Z,54.73
2023-02-11T07:47:47.842Z,54.70
2023-02-11T07:49:13.031Z,54.74
2023-02-11T07:50:37.632Z,54.64
2023-02-11T07:52:14.981Z,54.66
2023-02-11T07:53:44.563Z,54.41
2023-02-11T07:55:18.533Z,54.41
2023-02-11T07:56:43.792Z,54.59
2023-02-11T07:58:08.754Z,54.27
2023-02-11T07:59:31.538Z,54.20
2023-02-11T08:01:02.865Z,54.38
2023-02-11T08:02:58.034Z,54.27
2023-02-11T08:04:51.265Z,54.33
2023-02-11T08:06:43.844Z,54.22
2023-02-11T08:08:57.291Z,54.22
2023-02-11T08:10:50.222Z,54.27
2023-02-11T08:12:15.457Z,54.25
2023-02-11T08:13:41.251Z,54.17
2023-02-11T08:15:13.271Z,54.09
2023-02-11T08:16:46.578Z,54.21
2023-02-11T08:18:08.927Z,54.18
2023-02-11T08:19:35.343Z,54.27
2023-02-11T08:20:58.234Z,54.27
2023-02-11T08:22:28.441Z,54.35
2023-02-11T08:23:54.127Z,54.41
2023-02-11T08:25:16.835Z,54.33
2023-02-11T08:26:42.735Z,54.46
2023-02-11T08:28:06.946Z,54.38
2023-02-11T08:29:38.340Z,54.58
2023-02-11T08:31:14.902Z,54.34
2023-02-11T08:32:39.693Z,54.27
2023-02-11T08:34:02.626Z,54.53
2023-02-11T08:35:26.342Z,54.53
2023-02-11T08:36:50.346Z,54.70
2023-02-11T08:38:13.138Z,54.67
2023-02-11T08:39:44.880Z,54.46
2023-02-11T08:41:54.288Z,54.94
2023-02-11T08:43:19.265Z,55.02
2023-02-11T08:44:48.764Z,55.20
2023-02-11T08:46:48.134Z,55.29
2023-02-11T08:48:13.518Z,55.43
2023-02-11T08:49:43.102Z,55.30
2023-02-11T08:53:07.303Z,55.16
2023-02-11T08:54:32.509Z,55.27
2023-02-11T08:56:17.247Z,55.25
2023-02-11T08:58:02.733Z,55.29
2023-02-11T08:59:25.320Z,55.31
2023-02-11T09:01:51.122Z,55.23
2023-02-11T09:06:51.946Z,55.43
2023-02-11T09:08:34.110Z,55.52
2023-02-11T09:13:11.173Z,55.41
2023-02-11T09:15:05.969Z,55.41
2023-02-11T09:16:59.757Z,55.42
2023-02-11T09:18:31.645Z,55.66
2023-02-11T09:20:32.051Z,55.82
2023-02-11T09:22:53.370Z,56.05
2023-02-11T09:24:28.130Z,56.42
2023-02-11T09:26:06.368Z,56.63
2023-02-11T09:27:52.755Z,57.07
2023-02-11T09:29:26.351Z,57.31
2023-02-11T09:31:02.277Z,57.56
2023-02-11T09:33:10.789Z,57.78
2023-02-11T09:37:29.665Z,57.69
2023-02-11T09:39:08.008Z,57.75
2023-02-11T09:41:09.085Z,57.84
2023-02-11T09:43:04.229Z,57.71
2023-02-11T09:45:07.508Z,57.57
2023-02-11T09:46:41.272Z,57.69
2023-02-11T09:48:25.350Z,57.31
2023-02-11T09:51:03.304Z,57.22
2023-02-11T09:52:54.798Z,56.98
2023-02-11T09:54:38.703Z,57.04
2023-02-11T09:57:03.817Z,56.77
2023-02-11T09:58:38.020Z,56.51
2023-02-11T10:01:08.039Z,56.56
2023-02-11T10:03:08.520Z,56.45
2023-02-11T10:08:39.042Z,56.52
2023-02-11T10:10:34.014Z,56.76
2023-02-11T10:12:43.981Z,56.78
2023-02-11T10:14:29.745Z,56.97
2023-02-11T10:16:13.965Z,57.19
2023-02-11T10:18:26.602Z,57.34
2023-02-11T10:20:31.141Z,57.47
2023-02-11T10:22:16.497Z,57.87
2023-02-11T10:23:47.768Z,57.95
2023-02-11T10:25:50.610Z,58.07
2023-02-11T10:30:25.463Z,58.04
2023-02-11T10:31:58.418Z,58.06
2023-02-11T10:34:49.415Z,58.28
2023-02-11T10:37:09.291Z,58.05
2023-02-11T10:38:59.143Z,57.97
2023-02-11T10:40:36.544Z,57.90
2023-02-11T10:42:09.728Z,57.79
2023-02-11T10:43:56.141Z,57.87
2023-02-11T10:45:43.516Z,57.96
2023-02-11T10:47:39.263Z,57.91
2023-02-11T10:49:11.220Z,58.04
2023-02-11T10:50:46.009Z,58.02
2023-02-11T10:52:42.657Z,58.01
2023-02-11T10:54:29.779Z,58.36
2023-02-11T10:56:13.831Z,58.27
2023-02-11T10:57:40.613Z,58.49
2023-02-11T10:59:27.713Z,58.34
2023-02-11T11:01:04.929Z,58.64
2023-02-11T11:02:44.616Z,58.87
2023-02-11T11:06:03.808Z,59.27
2023-02-11T11:07:59.987Z,59.46
2023-02-11T11:09:39.095Z,59.51
2023-02-11T11:11:13.463Z,59.73
2023-02-11T11:12:49.128Z,59.84
2023-02-11T11:14:31.760Z,60.02
2023-02-11T11:18:25.548Z,60.06
2023-02-11T11:20:01.764Z,60.50
2023-02-11T11:21:39.949Z,60.54
2023-02-11T11:23:20.317Z,60.63
2023-02-11T11:24:57.198Z,60.75
2023-02-11T11:26:30.090Z,60.79
2023-02-11T11:27:56.105Z,60.94
2023-02-11T11:29:24.827Z,61.02
2023-02-11T11:30:52.415Z,61.08
2023-02-11T11:32:27.836Z,60.92
2023-02-11T11:33:57.338Z,61.02
2023-02-11T11:35:33.019Z,61.15
2023-02-11T11:36:58.868Z,60.75
2023-02-11T11:38:24.621Z,60.80
2023-02-11T11:40:01.947Z,60.57
2023-02-11T11:41:34.605Z,60.52
2023-02-11T11:43:25.545Z,60.25
2023-02-11T11:45:04.900Z,60.05
2023-02-11T11:46:49.318Z,59.86
2023-02-11T11:48:35.624Z,59.44
2023-02-11T11:50:21.258Z,59.57
2023-02-11T11:52:16.394Z,59.35
2023-02-11T11:53:48.643Z,59.37
2023-02-11T11:55:51.018Z,59.25
2023-02-11T11:57:38.947Z,59.17
2023-02-11T11:59:19.939Z,59.40
2023-02-11T12:01:11.534Z,59.43
2023-02-11T12:03:08.390Z,59.40
2023-02-11T12:05:05.886Z,59.52
2023-02-11T12:06:47.330Z,59.48
2023-02-11T12:08:33.714Z,59.58
2023-02-11T12:10:28.098Z,59.68
2023-02-11T12:12:34.454Z,59.53
2023-02-11T12:14:26.677Z,59.76
2023-02-11T12:18:50.984Z,59.95
2023-02-11T12:20:53.057Z,59.97
2023-02-11T12:25:52.455Z,59.89
2023-02-11T12:27:54.539Z,59.73
2023-02-11T12:29:44.461Z,59.54
2023-02-11T12:31:53.084Z,59.49
2023-02-11T12:34:24.171Z,59.23
2023-02-11T12:36:13.176Z,59.17
2023-02-11T12:38:29.093Z,59.13
2023-02-11T12:40:14.075Z,59.18
2023-02-11T12:44:01.428Z,58.94
2023-02-11T12:45:44.134Z,58.83
2023-02-11T12:47:31.517Z,59.08
2023-02-11T12:49:34.991Z,59.04
2023-02-11T12:54:14.458Z,59.13
2023-02-11T12:56:01.521Z,59.17
2023-02-11T12:57:32.803Z,59.25
2023-02-11T12:59:02.946Z,59.47
2023-02-11T13:01:39.439Z,59.83
2023-02-11T13:04:02.565Z,59.80
2023-02-11T13:06:16.894Z,60.00
2023-02-11T13:07:49.899Z,59.96
2023-02-11T13:09:45.185Z,60.09
2023-02-11T13:11:31.382Z,60.27
2023-02-11T13:13:15.685Z,60.14
2023-02-11T13:14:50.741Z,60.31
2023-02-11T13:18:25.586Z,60.70
2023-02-11T13:19:57.355Z,60.41
2023-02-11T13:21:53.012Z,60.43
2023-02-11T13:23:26.318Z,60.48
2023-02-11T13:24:59.806Z,60.42
2023-02-11T13:26:36.096Z,60.42
2023-02-11T13:28:22.397Z,60.49
2023-02-11T13:30:26.236Z,60.53
2023-02-11T13:32:01.437Z,60.55
2023-02-11T13:33:40.010Z,60.39
2023-02-11T13:35:24.784Z,60.86
2023-02-11T13:37:31.904Z,60.83
2023-02-11T13:39:03.977Z,60.73
2023-02-11T13:40:27.554Z,60.61
2023-02-11T13:42:06.484Z,60.66
2023-02-11T13:43:40.773Z,60.55
2023-02-11T13:45:34.725Z,60.97
2023-02-11T13:47:03.571Z,60.69
2023-02-11T13:48:32.267Z,60.78
2023-02-11T13:49:59.440Z,60.82
2023-02-11T13:51:46.584Z,60.90
2023-02-11T13:53:46.173Z,60.92
2023-02-11T13:55:28.793Z,60.92
2023-02-11T13:57:21.761Z,60.72
2023-02-11T13:59:06.224Z,61.01
2023-02-11T14:00:52.911Z,60.86
2023-02-11T14:02:48.418Z,61.26
2023-02-11T14:07:33.413Z,61.20
2023-02-11T14:09:40.081Z,61.51
2023-02-11T14:11:22.833Z,61.42
2023-02-11T14:13:07.893Z,61.63
2023-02-11T14:15:16.748Z,61.98
2023-02-11T14:17:23.619Z,61.98
2023-02-11T14:19:08.140Z,62.13
2023-02-11T14:20:53.643Z,61.99
2023-02-11T14:22:26.896Z,62.39
2023-02-11T14:24:27.618Z,62.60
2023-02-11T14:26:19.835Z,62.76
2023-02-11T14:27:55.877Z,62.45
2023-02-11T14:29:30.582Z,63.01
2023-02-11T14:31:05.428Z,62.70
2023-02-11T14:32:41.212Z,63.18
2023-02-11T14:34:56.313Z,63.23
2023-02-11T14:36:52.317Z,63.17
2023-02-11T14:38:31.115Z,63.33
2023-02-11T14:40:10.292Z,63.49
2023-02-11T14:41:44.540Z,63.50
2023-02-11T14:43:16.099Z,63.75
2023-02-11T14:44:40.474Z,63.61
2023-02-11T14:46:28.210Z,63.77
2023-02-11T14:48:12.719Z,64.12
2023-02-11T14:49:38.041Z,64.05
2023-02-11T14:51:04.767Z,64.34
2023-02-11T14:52:31.569Z,64.47
2023-02-11T14:53:58.176Z,64.58
2023-02-11T14:55:36.092Z,64.86
2023-02-11T14:57:25.436Z,65.00
2023-02-11T14:59:05.458Z,65.04
2023-02-11T15:00:36.012Z,65.29
2023-02-11T15:02:05.162Z,65.54
2023-02-11T15:03:36.960Z,65.62
2023-02-11T15:05:28.464Z,66.06
2023-02-11T15:06:55.155Z,66.05
2023-02-11T15:08:18.545Z,66.41
2023-02-11T15:09:51.217Z,66.50
2023-02-11T15:11:28.251Z,66.99
2023-02-11T15:13:03.317Z,67.11
2023-02-11T15:14:33.707Z,67.14
2023-02-11T15:16:02.842Z,67.61
2023-02-11T15:17:28.950Z,67.75
2023-02-11T15:19:00.474Z,68.21
2023-02-11T15:20:30.923Z,68.23
2023-02-11T15:21:54.978Z,68.12
2023-02-11T15:23:26.068Z,68.60
2023-02-11T15:25:03.747Z,68.77
2023-02-11T15:26:27.558Z,68.94
2023-02-11T15:28:25.646Z,69.29
2023-02-11T15:30:06.877Z,69.51
2023-02-11T15:31:49.273Z,69.44
2023-02-11T15:33:28.601Z,69.69
2023-02-11T15:35:00.226Z,69.68
2023-02-11T15:36:35.534Z,70.04
2023-02-11T15:38:07.698Z,70.22
2023-02-11T15:39:44.558Z,70.32
2023-02-11T15:41:11.809Z,70.46
2023-02-11T15:42:52.150Z,70.59
2023-02-11T15:44:44.010Z,70.66
2023-02-11T15:46:16.701Z,71.01
2023-02-11T15:47:50.261Z,71.01
2023-02-11T15:49:21.760Z,71.20
2023-02-11T15:50:58.684Z,71.36
2023-02-11T15:52:29.696Z,71.49
2023-02-11T15:54:01.824Z,71.59
2023-02-11T15:55:25.798Z,71.60
2023-02-11T15:56:51.414Z,71.79
2023-02-11T15:58:55.016Z,72.07
2023-02-11T16:00:26.500Z,71.81
2023-02-11T16:01:56.218Z,72.04
2023-02-11T16:03:23.797Z,72.11
2023-02-11T16:04:54.938Z,72.45
2023-02-11T16:06:29.916Z,72.35
2023-02-11T16:07:56.590Z,72.44
2023-02-11T16:09:36.999Z,72.72
2023-02-11T16:11:03.522Z,72.59
2023-02-11T16:12:36.167Z,72.68
2023-02-11T16:14:00.356Z,72.72
2023-02-11T16:15:51.076Z,73.01
2023-02-11T16:17:30.956Z,72.86
2023-02-11T16:19:30.580Z,73.08
2023-02-11T16:21:05.630Z,72.77
2023-02-11T16:22:35.685Z,72.99
2023-02-11T16:24:02.592Z,72.99
2023-02-11T16:25:36.158Z,73.26
2023-02-11T16:27:08.374Z,73.26
2023-02-11T16:28:33.863Z,73.19
2023-02-11T16:30:09.333Z,73.59
2023-02-11T16:31:53.639Z,73.45
2023-02-11T16:33:21.643Z,73.60
2023-02-11T16:34:46.104Z,73.28
2023-02-11T16:36:16.599Z,73.54
2023-02-11T16:38:05.562Z,73.69
2023-02-11T16:39:39.420Z,73.52
2023-02-11T16:41:10.349Z,73.52
2023-02-11T16:42:40.572Z,73.64
2023-02-11T16:44:05.266Z,73.44
2023-02-11T16:45:33.842Z,73.73
2023-02-11T16:47:10.606Z,73.82
2023-02-11T16:48:37.542Z,73.70
2023-02-11T16:50:14.726Z,73.75
2023-02-11T16:51:45.600Z,73.73
2023-02-11T16:53:27.952Z,73.77
2023-02-11T16:55:13.283Z,73.71
2023-02-11T16:56:43.870Z,73.52
2023-02-11T16:58:11.511Z,73.69
2023-02-11T16:59:37.328Z,73.73
2023-02-11T17:01:25.531Z,73.73
2023-02-11T17:02:56.053Z,73.78
2023-02-11T17:04:36.213Z,73.92
2023-02-11T17:06:04.571Z,73.80
2023-02-11T17:07:43.894Z,73.94
2023-02-11T17:09:21.799Z,73.85
2023-02-11T17:10:50.119Z,73.89
2023-02-11T17:12:42.135Z,73.97
2023-02-11T17:14:18.550Z,74.03
2023-02-11T17:16:46.383Z,73.99
2023-02-11T17:18:41.017Z,74.06
2023-02-11T17:20:20.752Z,73.98
2023-02-11T17:21:52.563Z,73.93
2023-02-11T17:23:21.184Z,74.14
2023-02-11T17:25:08.904Z,74.00
2023-02-11T17:26:48.007Z,74.07
2023-02-11T17:28:19.240Z,74.15
2023-02-11T17:29:50.178Z,74.12
2023-02-11T17:31:33.880Z,74.07
2023-02-11T17:33:02.881Z,73.97
2023-02-11T17:35:01.394Z,74.33
2023-02-11T17:38:18.126Z,74.18
2023-02-11T17:42:50.611Z,74.05
2023-02-11T17:44:15.570Z,74.17
2023-02-11T17:45:46.785Z,74.32
2023-02-11T17:47:12.888Z,74.15
2023-02-11T17:48:36.202Z,74.39
2023-02-11T17:50:04.641Z,74.38
2023-02-11T17:53:32.247Z,74.40
2023-02-11T17:55:47.642Z,74.52
2023-02-11T17:57:21.551Z,74.38
2023-02-11T17:58:50.172Z,74.21
2023-02-11T18:00:21.776Z,74.46
2023-02-11T18:02:00.196Z,74.62
2023-02-11T18:03:32.294Z,74.37
2023-02-11T18:05:02.590Z,74.67
2023-02-11T18:06:38.770Z,74.82
2023-02-11T18:14:21.428Z,74.59
2023-02-11T18:16:20.478Z,74.55
2023-02-11T18:35:18.849Z,74.80
2023-02-11T18:37:22.069Z,75.05
2023-02-11T18:39:41.777Z,74.93
2023-02-11T18:42:53.087Z,75.01
2023-02-11T18:44:52.265Z,75.09
2023-02-11T18:55:12.271Z,75.05
2023-02-11T18:57:16.029Z,75.28
2023-02-11T19:00:10.810Z,75.47
2023-02-11T19:01:15.081Z,75.48
2023-02-11T19:02:50.909Z,75.71
2023-02-11T19:04:32.867Z,76.04
2023-02-11T19:06:55.643Z,75.97
2023-02-11T19:09:07.329Z,75.78
2023-02-11T19:12:38.455Z,75.75
2023-02-11T19:14:14.172Z,75.76
2023-02-11T19:17:36.825Z,75.79
2023-02-11T19:23:14.245Z,75.73
2023-02-11T19:25:11.482Z,75.70
2023-02-11T19:27:22.119Z,76.03
2023-02-11T19:29:08.074Z,75.96
2023-02-11T19:31:32.645Z,76.14
2023-02-11T19:34:09.125Z,76.20
2023-02-11T19:36:59.688Z,76.08
2023-02-11T19:38:42.284Z,76.01
2023-02-11T19:40:27.468Z,76.04
2023-02-11T19:49:36.545Z,75.89
2023-02-11T19:52:16.638Z,76.01
2023-02-11T19:58:32.219Z,76.21
2023-02-11T20:00:31.395Z,76.25
2023-02-11T20:06:57.029Z,76.50
2023-02-11T20:09:29.984Z,76.36
2023-02-11T20:11:57.766Z,76.10
2023-02-11T20:13:38.330Z,76.29
2023-02-11T20:18:42.553Z,76.40
2023-02-11T20:20:06.006Z,76.63
2023-02-11T20:21:35.975Z,76.78
2023-02-11T20:23:10.053Z,77.03
2023-02-11T20:24:35.951Z,76.95
2023-02-11T20:25:57.634Z,77.09
2023-02-11T20:28:09.769Z,77.41
2023-02-11T20:29:34.884Z,76.98
2023-02-11T20:31:03.534Z,77.22
2023-02-11T20:32:32.827Z,77.21
2023-02-11T20:33:56.658Z,77.21
2023-02-11T20:35:20.868Z,77.35
2023-02-11T20:36:53.060Z,77.26
2023-02-11T20:38:16.523Z,77.25
2023-02-11T20:39:44.159Z,77.26
2023-02-11T20:41:14.130Z,77.43
2023-02-11T20:42:49.009Z,77.50
2023-02-11T20:44:13.972Z,77.51
2023-02-11T20:45:43.182Z,77.47
2023-02-11T20:47:26.739Z,77.34
2023-02-11T20:49:09.921Z,77.32
2023-02-11T20:50:37.026Z,77.38
2023-02-11T20:52:05.178Z,77.44
2023-02-11T20:53:27.475Z,77.55
2023-02-11T20:54:59.350Z,77.47
2023-02-11T20:56:35.356Z,77.46
2023-02-11T20:58:03.626Z,77.48
2023-02-11T20:59:26.679Z,77.47
2023-02-11T21:00:52.265Z,77.57
2023-02-11T21:02:16.648Z,77.46
2023-02-11T21:03:49.278Z,77.52
2023-02-11T21:05:49.265Z,77.38
2023-02-11T21:07:33.418Z,77.55
2023-02-11T21:12:39.256Z,77.28
2023-02-11T21:14:28.368Z,77.45
2023-02-11T21:15:58.095Z,77.48
2023-02-11T21:17:35.175Z,77.40
2023-02-11T21:19:12.998Z,77.45
2023-02-11T21:21:23.958Z,77.57
2023-02-11T21:23:54.620Z,77.55
2023-02-11T21:25:48.643Z,77.43
2023-02-11T21:27:12.624Z,77.26
2023-02-11T21:28:42.236Z,77.42
2023-02-11T21:30:10.828Z,77.62
2023-02-11T21:31:42.449Z,77.60
2023-02-11T21:33:05.794Z,77.52
2023-02-11T21:34:52.893Z,77.70
2023-02-11T21:36:31.610Z,77.60
2023-02-11T21:38:01.906Z,77.47
2023-02-11T21:39:51.130Z,77.50
2023-02-11T21:42:13.856Z,77.67
2023-02-11T21:43:48.064Z,77.48
2023-02-11T21:45:15.569Z,77.42
2023-02-11T21:47:01.847Z,77.42
2023-02-11T21:50:10.894Z,77.37
2023-02-11T21:51:44.688Z,77.47
2023-02-11T21:53:29.917Z,77.73
2023-02-11T21:55:26.126Z,77.61
2023-02-11T21:56:41.867Z,77.54
2023-02-11T21:58:22.686Z,77.71
2023-02-11T22:00:16.390Z,77.61
2023-02-11T22:01:45.747Z,77.60
2023-02-11T22:03:14.951Z,77.71
2023-02-11T22:04:38.950Z,77.71
2023-02-11T22:06:53.050Z,77.83
2023-02-11T22:08:19.788Z,77.66
2023-02-11T22:09:44.838Z,77.82
2023-02-11T22:11:26.526Z,77.74
2023-02-11T22:12:52.300Z,78.03
2023-02-11T22:14:21.692Z,78.03
2023-02-11T22:15:50.137Z,77.83
2023-02-11T22:17:24.915Z,77.83
2023-02-11T22:21:41.675Z,77.72
2023-02-11T22:23:16.445Z,77.67
2023-02-11T22:24:51.374Z,77.96
2023-02-11T22:26:44.536Z,77.97
2023-02-11T22:28:12.901Z,77.92
2023-02-11T22:29:52.618Z,77.95
2023-02-11T22:31:29.460Z,77.99
2023-02-11T22:33:11.178Z,78.01
2023-02-11T22:34:48.217Z,77.95
2023-02-11T22:36:31.930Z,77.89
2023-02-11T22:38:10.234Z,77.84
2023-02-11T22:39:54.784Z,77.85
2023-02-11T22:41:27.280Z,77.93